sensor_id;sensor_type;location;lat;lon;timestamp;temperature;humidity
2929;DHT22;1474;51.460;7.150;2022-09-16T00:01:21;13.70;99.90
2929;DHT22;1474;51.460;7.150;2022-09-16T00:03:47;13.70;99.90
2929;DHT22;1474;51.460;7.150;2022-09-16T00:06:22;13.70;99.90
2929;DHT22;1474;51.460;7.150;2022-09-16T00:08:50;13.80;99.90
2929;DHT22;1474;51.460;7.150;2022-09-16T00:11:17;13.80;99.90
2929;DHT22;1474;51.460;7.150;2022-09-16T00:13:43;13.80;99.90
2929;DHT22;1474;51.460;7.150;2022-09-16T00:16:23;13.80;99.90
2929;DHT22;1474;51.460;7.150;2022-09-16T00:18:57;13.80;99.90
2929;DHT22;1474;51.460;7.150;2022-09-16T00:21:25;13.90;99.90
2929;DHT22;1474;51.460;7.150;2022-09-16T00:23:51;13.80;99.90
2929;DHT22;1474;51.460;7.150;2022-09-16T00:26:16;13.80;99.90
2929;DHT22;1474;51.460;7.150;2022-09-16T00:28:42;13.80;99.90
2929;DHT22;1474;51.460;7.150;2022-09-16T00:31:08;13.80;99.90
2929;DHT22;1474;51.460;7.150;2022-09-16T00:33:34;13.90;99.90
2929;DHT22;1474;51.460;7.150;2022-09-16T00:36:17;13.80;99.90
2929;DHT22;1474;51.460;7.150;2022-09-16T00:38:43;13.80;99.90
2929;DHT22;1474;51.460;7.150;2022-09-16T00:41:15;13.70;99.90
2929;DHT22;1474;51.460;7.150;2022-09-16T00:43:59;13.80;99.90
2929;DHT22;1474;51.460;7.150;2022-09-16T00:48:59;13.80;99.90
2929;DHT22;1474;51.460;7.150;2022-09-16T00:51:26;13.80;99.90
2929;DHT22;1474;51.460;7.150;2022-09-16T00:53:56;13.80;99.90
2929;DHT22;1474;51.460;7.150;2022-09-16T00:56:25;13.90;99.90
2929;DHT22;1474;51.460;7.150;2022-09-16T00:59:04;13.90;99.90
2929;DHT22;1474;51.460;7.150;2022-09-16T01:01:31;13.90;99.90
2929;DHT22;1474;51.460;7.150;2022-09-16T01:04:02;13.80;99.90
2929;DHT22;1474;51.460;7.150;2022-09-16T01:06:30;13.80;99.90
2929;DHT22;1474;51.460;7.150;2022-09-16T01:08:56;13.70;99.90
2929;DHT22;1474;51.460;7.150;2022-09-16T01:11:23;13.70;99.90
2929;DHT22;1474;51.460;7.150;2022-09-16T01:13:49;13.70;99.90
2929;DHT22;1474;51.460;7.150;2022-09-16T01:16:32;13.70;99.90
2929;DHT22;1474;51.460;7.150;2022-09-16T01:21:44;13.80;99.90
2929;DHT22;1474;51.460;7.150;2022-09-16T01:24:55;13.80;99.90
2929;DHT22;1474;51.460;7.150;2022-09-16T01:33:09;13.50;99.90
2929;DHT22;1474;51.460;7.150;2022-09-16T01:35:53;13.50;99.90
2929;DHT22;1474;51.460;7.150;2022-09-16T01:54:20;13.40;99.90
2929;DHT22;1474;51.460;7.150;2022-09-16T01:56:56;13.40;99.90
2929;DHT22;1474;51.460;7.150;2022-09-16T01:59:53;13.40;99.90
2929;DHT22;1474;51.460;7.150;2022-09-16T02:02:43;13.40;99.90
2929;DHT22;1474;51.460;7.150;2022-09-16T02:05:39;13.40;99.90
2929;DHT22;1474;51.460;7.150;2022-09-16T02:08:10;13.30;99.90
2929;DHT22;1474;51.460;7.150;2022-09-16T02:10:49;13.30;99.90
2929;DHT22;1474;51.460;7.150;2022-09-16T02:13:21;13.30;99.90
2929;DHT22;1474;51.460;7.150;2022-09-16T02:15:50;13.40;99.90
2929;DHT22;1474;51.460;7.150;2022-09-16T02:18:21;13.40;99.90
2929;DHT22;1474;51.460;7.150;2022-09-16T02:20:50;13.30;99.90
2929;DHT22;1474;51.460;7.150;2022-09-16T02:23:31;13.40;99.90
2929;DHT22;1474;51.460;7.150;2022-09-16T02:25:59;13.40;99.90
2929;DHT22;1474;51.460;7.150;2022-09-16T02:28:29;13.40;99.90
2929;DHT22;1474;51.460;7.150;2022-09-16T02:30:58;13.30;99.90
2929;DHT22;1474;51.460;7.150;2022-09-16T02:33:31;13.20;99.90
2929;DHT22;1474;51.460;7.150;2022-09-16T02:35:58;13.20;99.90
2929;DHT22;1474;51.460;7.150;2022-09-16T02:38:31;13.30;99.90
2929;DHT22;1474;51.460;7.150;2022-09-16T02:40:59;13.30;99.90
2929;DHT22;1474;51.460;7.150;2022-09-16T02:43:26;13.30;99.90
2929;DHT22;1474;51.460;7.150;2022-09-16T02:57:01;13.30;99.90
2929;DHT22;1474;51.460;7.150;2022-09-16T02:59:27;13.30;99.90
2929;DHT22;1474;51.460;7.150;2022-09-16T03:01:53;13.30;99.90
2929;DHT22;1474;51.460;7.150;2022-09-16T03:04:20;13.40;99.90
2929;DHT22;1474;51.460;7.150;2022-09-16T03:06:46;13.30;99.90
2929;DHT22;1474;51.460;7.150;2022-09-16T03:09:13;13.30;99.90
2929;DHT22;1474;51.460;7.150;2022-09-16T03:14:57;13.30;99.90
2929;DHT22;1474;51.460;7.150;2022-09-16T03:20:20;13.20;99.90
2929;DHT22;1474;51.460;7.150;2022-09-16T03:23:08;13.20;99.90
2929;DHT22;1474;51.460;7.150;2022-09-16T03:28:51;13.30;99.90
2929;DHT22;1474;51.460;7.150;2022-09-16T03:31:39;13.30;99.90
2929;DHT22;1474;51.460;7.150;2022-09-16T03:34:42;13.30;99.90
2929;DHT22;1474;51.460;7.150;2022-09-16T03:37:12;13.30;99.90
2929;DHT22;1474;51.460;7.150;2022-09-16T03:39:40;13.30;99.90
2929;DHT22;1474;51.460;7.150;2022-09-16T03:42:07;13.20;99.90
2929;DHT22;1474;51.460;7.150;2022-09-16T03:44:37;13.20;99.90
2929;DHT22;1474;51.460;7.150;2022-09-16T03:47:07;13.30;99.90
2929;DHT22;1474;51.460;7.150;2022-09-16T03:49:34;13.20;99.90
2929;DHT22;1474;51.460;7.150;2022-09-16T03:51:59;13.20;99.90
2929;DHT22;1474;51.460;7.150;2022-09-16T03:54:26;13.10;99.90
2929;DHT22;1474;51.460;7.150;2022-09-16T03:56:51;13.10;99.90
2929;DHT22;1474;51.460;7.150;2022-09-16T03:59:17;13.10;99.90
2929;DHT22;1474;51.460;7.150;2022-09-16T04:01:43;13.10;99.90
2929;DHT22;1474;51.460;7.150;2022-09-16T04:04:10;13.10;99.90
2929;DHT22;1474;51.460;7.150;2022-09-16T04:06:36;13.10;99.90
2929;DHT22;1474;51.460;7.150;2022-09-16T04:09:03;13.00;99.90
2929;DHT22;1474;51.460;7.150;2022-09-16T04:11:30;13.00;99.90
2929;DHT22;1474;51.460;7.150;2022-09-16T04:13:57;13.10;99.90
2929;DHT22;1474;51.460;7.150;2022-09-16T04:16:24;13.00;99.90
2929;DHT22;1474;51.460;7.150;2022-09-16T04:18:50;13.10;99.90
2929;DHT22;1474;51.460;7.150;2022-09-16T04:21:16;13.00;99.90
2929;DHT22;1474;51.460;7.150;2022-09-16T04:23:42;13.00;99.90
2929;DHT22;1474;51.460;7.150;2022-09-16T04:26:09;12.90;99.90
2929;DHT22;1474;51.460;7.150;2022-09-16T04:28:35;13.00;99.90
2929;DHT22;1474;51.460;7.150;2022-09-16T04:31:02;13.00;99.90
2929;DHT22;1474;51.460;7.150;2022-09-16T04:33:30;12.90;99.90
2929;DHT22;1474;51.460;7.150;2022-09-16T04:38:33;13.00;99.90
2929;DHT22;1474;51.460;7.150;2022-09-16T04:41:10;13.00;99.90
2929;DHT22;1474;51.460;7.150;2022-09-16T04:43:36;13.00;99.90
2929;DHT22;1474;51.460;7.150;2022-09-16T04:46:03;13.00;99.90
2929;DHT22;1474;51.460;7.150;2022-09-16T04:48:29;13.00;99.90
2929;DHT22;1474;51.460;7.150;2022-09-16T04:51:01;13.00;99.90
2929;DHT22;1474;51.460;7.150;2022-09-16T04:53:28;13.00;99.90
2929;DHT22;1474;51.460;7.150;2022-09-16T04:55:53;13.00;99.90
2929;DHT22;1474;51.460;7.150;2022-09-16T04:58:19;13.00;99.90
2929;DHT22;1474;51.460;7.150;2022-09-16T05:00:44;12.90;99.90
2929;DHT22;1474;51.460;7.150;2022-09-16T05:03:10;13.00;99.90
2929;DHT22;1474;51.460;7.150;2022-09-16T05:05:35;12.90;99.90
2929;DHT22;1474;51.460;7.150;2022-09-16T05:08:01;12.90;99.90
2929;DHT22;1474;51.460;7.150;2022-09-16T05:10:27;12.80;99.90
2929;DHT22;1474;51.460;7.150;2022-09-16T05:12:53;12.80;99.90
2929;DHT22;1474;51.460;7.150;2022-09-16T05:15:19;12.90;99.90
2929;DHT22;1474;51.460;7.150;2022-09-16T05:17:45;12.90;99.90
2929;DHT22;1474;51.460;7.150;2022-09-16T05:20:11;13.00;99.90
2929;DHT22;1474;51.460;7.150;2022-09-16T05:22:38;13.10;99.90
2929;DHT22;1474;51.460;7.150;2022-09-16T05:25:04;13.10;99.90
2929;DHT22;1474;51.460;7.150;2022-09-16T05:27:30;13.10;99.90
2929;DHT22;1474;51.460;7.150;2022-09-16T05:29:56;13.10;99.90
2929;DHT22;1474;51.460;7.150;2022-09-16T05:32:21;13.10;99.90
2929;DHT22;1474;51.460;7.150;2022-09-16T05:34:47;13.00;99.90
2929;DHT22;1474;51.460;7.150;2022-09-16T05:37:14;13.00;99.90
2929;DHT22;1474;51.460;7.150;2022-09-16T05:39:39;13.00;99.90
2929;DHT22;1474;51.460;7.150;2022-09-16T05:42:05;13.00;99.90
2929;DHT22;1474;51.460;7.150;2022-09-16T05:44:31;13.00;99.90
2929;DHT22;1474;51.460;7.150;2022-09-16T05:46:56;13.00;99.90
2929;DHT22;1474;51.460;7.150;2022-09-16T05:49:22;13.00;99.90
2929;DHT22;1474;51.460;7.150;2022-09-16T05:51:49;12.90;99.90
2929;DHT22;1474;51.460;7.150;2022-09-16T05:54:15;12.90;99.90
2929;DHT22;1474;51.460;7.150;2022-09-16T05:56:42;12.90;99.90
2929;DHT22;1474;51.460;7.150;2022-09-16T05:59:10;12.90;99.90
2929;DHT22;1474;51.460;7.150;2022-09-16T06:01:39;12.90;99.90
2929;DHT22;1474;51.460;7.150;2022-09-16T06:04:07;12.90;99.90
2929;DHT22;1474;51.460;7.150;2022-09-16T06:06:39;12.90;99.90
2929;DHT22;1474;51.460;7.150;2022-09-16T06:09:08;13.00;99.90
2929;DHT22;1474;51.460;7.150;2022-09-16T06:11:42;13.00;99.90
2929;DHT22;1474;51.460;7.150;2022-09-16T06:14:09;13.10;99.90
2929;DHT22;1474;51.460;7.150;2022-09-16T06:16:36;13.10;99.90
2929;DHT22;1474;51.460;7.150;2022-09-16T06:19:05;13.20;99.90
2929;DHT22;1474;51.460;7.150;2022-09-16T06:21:31;13.20;99.90
2929;DHT22;1474;51.460;7.150;2022-09-16T06:23:59;13.30;99.90
2929;DHT22;1474;51.460;7.150;2022-09-16T06:26:26;13.30;99.90
2929;DHT22;1474;51.460;7.150;2022-09-16T06:28:52;13.40;99.90
2929;DHT22;1474;51.460;7.150;2022-09-16T06:31:25;13.40;99.90
2929;DHT22;1474;51.460;7.150;2022-09-16T06:33:52;13.40;99.90
2929;DHT22;1474;51.460;7.150;2022-09-16T06:36:29;13.40;99.90
2929;DHT22;1474;51.460;7.150;2022-09-16T06:38:55;13.40;99.90
2929;DHT22;1474;51.460;7.150;2022-09-16T06:41:21;13.40;99.90
2929;DHT22;1474;51.460;7.150;2022-09-16T06:43:48;13.50;99.90
2929;DHT22;1474;51.460;7.150;2022-09-16T06:46:21;13.40;99.90
2929;DHT22;1474;51.460;7.150;2022-09-16T06:48:49;13.40;99.90
2929;DHT22;1474;51.460;7.150;2022-09-16T06:51:23;13.50;99.90
2929;DHT22;1474;51.460;7.150;2022-09-16T06:53:49;13.50;99.90
2929;DHT22;1474;51.460;7.150;2022-09-16T06:56:17;13.40;99.90
2929;DHT22;1474;51.460;7.150;2022-09-16T06:58:46;13.20;99.90
2929;DHT22;1474;51.460;7.150;2022-09-16T07:01:18;13.20;99.90
2929;DHT22;1474;51.460;7.150;2022-09-16T07:03:46;13.10;99.90
2929;DHT22;1474;51.460;7.150;2022-09-16T07:06:13;13.20;99.90
2929;DHT22;1474;51.460;7.150;2022-09-16T07:08:39;13.30;99.90
2929;DHT22;1474;51.460;7.150;2022-09-16T07:11:17;13.30;99.90
2929;DHT22;1474;51.460;7.150;2022-09-16T07:13:43;13.40;99.90
2929;DHT22;1474;51.460;7.150;2022-09-16T07:16:16;13.50;99.90
2929;DHT22;1474;51.460;7.150;2022-09-16T07:18:42;13.60;99.90
2929;DHT22;1474;51.460;7.150;2022-09-16T07:21:12;13.70;99.90
2929;DHT22;1474;51.460;7.150;2022-09-16T07:23:39;13.80;99.90
2929;DHT22;1474;51.460;7.150;2022-09-16T07:26:19;13.80;99.90
2929;DHT22;1474;51.460;7.150;2022-09-16T07:28:46;13.80;99.90
2929;DHT22;1474;51.460;7.150;2022-09-16T07:31:18;13.80;99.90
2929;DHT22;1474;51.460;7.150;2022-09-16T07:33:45;13.90;99.90
2929;DHT22;1474;51.460;7.150;2022-09-16T07:36:14;13.90;99.90
2929;DHT22;1474;51.460;7.150;2022-09-16T07:38:40;13.90;99.90
2929;DHT22;1474;51.460;7.150;2022-09-16T07:43:37;14.00;99.90
2929;DHT22;1474;51.460;7.150;2022-09-16T07:46:04;14.00;99.90
2929;DHT22;1474;51.460;7.150;2022-09-16T07:48:31;14.00;99.90
2929;DHT22;1474;51.460;7.150;2022-09-16T07:51:00;14.20;99.90
2929;DHT22;1474;51.460;7.150;2022-09-16T07:53:27;14.40;99.90
2929;DHT22;1474;51.460;7.150;2022-09-16T07:55:55;14.60;99.90
2929;DHT22;1474;51.460;7.150;2022-09-16T07:58:21;14.70;99.90
2929;DHT22;1474;51.460;7.150;2022-09-16T08:00:48;14.90;99.90
2929;DHT22;1474;51.460;7.150;2022-09-16T08:03:14;14.70;99.90
2929;DHT22;1474;51.460;7.150;2022-09-16T08:05:40;14.70;99.90
2929;DHT22;1474;51.460;7.150;2022-09-16T08:08:06;14.60;99.90
2929;DHT22;1474;51.460;7.150;2022-09-16T08:10:31;14.50;99.90
2929;DHT22;1474;51.460;7.150;2022-09-16T08:12:57;14.50;99.90
2929;DHT22;1474;51.460;7.150;2022-09-16T08:15:22;14.50;99.90
2929;DHT22;1474;51.460;7.150;2022-09-16T08:17:48;14.60;99.90
2929;DHT22;1474;51.460;7.150;2022-09-16T08:20:14;14.90;99.90
2929;DHT22;1474;51.460;7.150;2022-09-16T08:22:40;15.00;99.90
2929;DHT22;1474;51.460;7.150;2022-09-16T08:25:06;15.10;99.90
2929;DHT22;1474;51.460;7.150;2022-09-16T08:27:35;15.10;99.90
2929;DHT22;1474;51.460;7.150;2022-09-16T08:30:02;15.10;99.90
2929;DHT22;1474;51.460;7.150;2022-09-16T08:32:28;15.10;99.90
2929;DHT22;1474;51.460;7.150;2022-09-16T08:34:53;15.00;99.90
2929;DHT22;1474;51.460;7.150;2022-09-16T08:37:19;15.10;99.90
2929;DHT22;1474;51.460;7.150;2022-09-16T08:39:46;15.20;99.90
2929;DHT22;1474;51.460;7.150;2022-09-16T08:45:10;15.50;99.90
2929;DHT22;1474;51.460;7.150;2022-09-16T08:50:32;15.60;99.90
2929;DHT22;1474;51.460;7.150;2022-09-16T08:53:03;15.50;99.90
2929;DHT22;1474;51.460;7.150;2022-09-16T08:55:37;15.50;99.90
2929;DHT22;1474;51.460;7.150;2022-09-16T08:58:18;15.40;99.90
2929;DHT22;1474;51.460;7.150;2022-09-16T09:00:46;15.60;99.90
2929;DHT22;1474;51.460;7.150;2022-09-16T09:03:33;15.80;99.90
2929;DHT22;1474;51.460;7.150;2022-09-16T09:26:03;16.20;99.90
2929;DHT22;1474;51.460;7.150;2022-09-16T09:28:51;16.30;99.90
2929;DHT22;1474;51.460;7.150;2022-09-16T09:31:40;16.40;99.90
2929;DHT22;1474;51.460;7.150;2022-09-16T09:34:33;16.70;99.90
2929;DHT22;1474;51.460;7.150;2022-09-16T09:42:35;17.20;99.90
2929;DHT22;1474;51.460;7.150;2022-09-16T09:48:17;17.50;99.90
2929;DHT22;1474;51.460;7.150;2022-09-16T09:50:47;17.50;99.90
2929;DHT22;1474;51.460;7.150;2022-09-16T09:53:30;17.30;99.90
2929;DHT22;1474;51.460;7.150;2022-09-16T09:58:46;17.10;99.90
2929;DHT22;1474;51.460;7.150;2022-09-16T10:01:13;17.10;99.90
2929;DHT22;1474;51.460;7.150;2022-09-16T10:03:40;16.90;99.90
2929;DHT22;1474;51.460;7.150;2022-09-16T10:06:06;16.70;99.90
2929;DHT22;1474;51.460;7.150;2022-09-16T10:08:41;16.70;99.90
2929;DHT22;1474;51.460;7.150;2022-09-16T10:11:30;16.70;99.90
2929;DHT22;1474;51.460;7.150;2022-09-16T10:13:58;16.80;99.90
2929;DHT22;1474;51.460;7.150;2022-09-16T10:16:28;16.80;99.90
2929;DHT22;1474;51.460;7.150;2022-09-16T10:21:20;16.60;99.90
2929;DHT22;1474;51.460;7.150;2022-09-16T10:23:54;16.40;99.90
2929;DHT22;1474;51.460;7.150;2022-09-16T10:26:23;16.40;99.90
2929;DHT22;1474;51.460;7.150;2022-09-16T10:31:24;16.60;99.90
2929;DHT22;1474;51.460;7.150;2022-09-16T10:33:50;16.90;99.90
2929;DHT22;1474;51.460;7.150;2022-09-16T10:36:21;16.90;99.90
2929;DHT22;1474;51.460;7.150;2022-09-16T10:38:53;16.90;98.90
2929;DHT22;1474;51.460;7.150;2022-09-16T10:41:26;17.00;99.50
2929;DHT22;1474;51.460;7.150;2022-09-16T10:44:12;17.10;99.90
2929;DHT22;1474;51.460;7.150;2022-09-16T10:47:00;17.20;99.80
2929;DHT22;1474;51.460;7.150;2022-09-16T10:49:50;17.20;98.50
2929;DHT22;1474;51.460;7.150;2022-09-16T10:52:28;17.30;98.30
2929;DHT22;1474;51.460;7.150;2022-09-16T10:55:08;17.20;98.90
2929;DHT22;1474;51.460;7.150;2022-09-16T10:57:34;17.00;99.20
2929;DHT22;1474;51.460;7.150;2022-09-16T11:00:19;16.90;99.20
2929;DHT22;1474;51.460;7.150;2022-09-16T11:08:53;17.10;98.60
2929;DHT22;1474;51.460;7.150;2022-09-16T11:14:36;17.10;98.00
2929;DHT22;1474;51.460;7.150;2022-09-16T11:36:53;17.70;98.90
2929;DHT22;1474;51.460;7.150;2022-09-16T11:42:07;18.00;97.20
2929;DHT22;1474;51.460;7.150;2022-09-16T12:01:18;18.70;94.80
2929;DHT22;1474;51.460;7.150;2022-09-16T12:04:21;18.40;96.30
2929;DHT22;1474;51.460;7.150;2022-09-16T12:06:57;18.60;95.40
2929;DHT22;1474;51.460;7.150;2022-09-16T12:12:21;18.20;95.60
2929;DHT22;1474;51.460;7.150;2022-09-16T12:14:54;18.20;95.00
2929;DHT22;1474;51.460;7.150;2022-09-16T12:17:27;18.00;96.30
2929;DHT22;1474;51.460;7.150;2022-09-16T12:20:02;18.20;96.10
2929;DHT22;1474;51.460;7.150;2022-09-16T12:22:39;18.20;95.60
2929;DHT22;1474;51.460;7.150;2022-09-16T12:25:13;18.20;96.00
2929;DHT22;1474;51.460;7.150;2022-09-16T12:27:52;18.10;95.60
2929;DHT22;1474;51.460;7.150;2022-09-16T12:30:34;18.00;97.40
2929;DHT22;1474;51.460;7.150;2022-09-16T12:38:43;18.30;96.50
2929;DHT22;1474;51.460;7.150;2022-09-16T12:46:52;18.90;94.80
2929;DHT22;1474;51.460;7.150;2022-09-16T12:52:07;18.40;94.10
2929;DHT22;1474;51.460;7.150;2022-09-16T13:00:14;17.30;97.70
2929;DHT22;1474;51.460;7.150;2022-09-16T13:03:17;17.00;99.00
2929;DHT22;1474;51.460;7.150;2022-09-16T13:05:48;16.70;99.90
2929;DHT22;1474;51.460;7.150;2022-09-16T13:08:30;16.50;99.90
2929;DHT22;1474;51.460;7.150;2022-09-16T13:10:59;16.40;99.90
2929;DHT22;1474;51.460;7.150;2022-09-16T13:13:39;16.20;99.90
2929;DHT22;1474;51.460;7.150;2022-09-16T13:16:08;16.10;99.90
2929;DHT22;1474;51.460;7.150;2022-09-16T13:19:21;15.70;99.90
2929;DHT22;1474;51.460;7.150;2022-09-16T13:21:41;15.50;99.90
2929;DHT22;1474;51.460;7.150;2022-09-16T13:24:32;15.40;99.90
2929;DHT22;1474;51.460;7.150;2022-09-16T13:26:59;15.00;99.90
2929;DHT22;1474;51.460;7.150;2022-09-16T13:29:51;14.60;99.90
2929;DHT22;1474;51.460;7.150;2022-09-16T13:32:55;14.00;99.90
2929;DHT22;1474;51.460;7.150;2022-09-16T13:35:41;13.50;99.90
2929;DHT22;1474;51.460;7.150;2022-09-16T13:38:35;13.50;99.90
2929;DHT22;1474;51.460;7.150;2022-09-16T13:41:03;13.60;99.90
2929;DHT22;1474;51.460;7.150;2022-09-16T13:43:34;13.80;99.90
2929;DHT22;1474;51.460;7.150;2022-09-16T13:46:11;13.80;99.90
2929;DHT22;1474;51.460;7.150;2022-09-16T13:51:25;13.80;99.90
2929;DHT22;1474;51.460;7.150;2022-09-16T13:53:52;13.90;99.90
2929;DHT22;1474;51.460;7.150;2022-09-16T13:56:45;13.90;99.90
2929;DHT22;1474;51.460;7.150;2022-09-16T14:10:42;14.50;99.90
2929;DHT22;1474;51.460;7.150;2022-09-16T14:13:20;14.80;99.90
2929;DHT22;1474;51.460;7.150;2022-09-16T14:15:51;15.00;99.90
2929;DHT22;1474;51.460;7.150;2022-09-16T14:18:21;15.00;99.90
2929;DHT22;1474;51.460;7.150;2022-09-16T14:20:53;15.10;99.90
2929;DHT22;1474;51.460;7.150;2022-09-16T14:23:24;15.10;99.90
2929;DHT22;1474;51.460;7.150;2022-09-16T14:25:50;15.10;99.90
2929;DHT22;1474;51.460;7.150;2022-09-16T14:28:26;15.10;99.90
2929;DHT22;1474;51.460;7.150;2022-09-16T14:33:28;15.30;99.90
2929;DHT22;1474;51.460;7.150;2022-09-16T14:35:57;15.40;99.90
2929;DHT22;1474;51.460;7.150;2022-09-16T14:38:33;15.50;99.90
2929;DHT22;1474;51.460;7.150;2022-09-16T14:41:00;15.50;99.90
2929;DHT22;1474;51.460;7.150;2022-09-16T14:43:30;15.50;99.90
2929;DHT22;1474;51.460;7.150;2022-09-16T14:46:00;15.60;99.90
2929;DHT22;1474;51.460;7.150;2022-09-16T14:48:33;15.40;99.90
2929;DHT22;1474;51.460;7.150;2022-09-16T14:51:00;15.40;99.90
2929;DHT22;1474;51.460;7.150;2022-09-16T14:53:32;15.40;99.90
2929;DHT22;1474;51.460;7.150;2022-09-16T14:56:04;15.50;99.90
2929;DHT22;1474;51.460;7.150;2022-09-16T14:58:31;15.60;99.90
2929;DHT22;1474;51.460;7.150;2022-09-16T15:01:01;15.60;99.90
2929;DHT22;1474;51.460;7.150;2022-09-16T15:06:20;15.40;99.90
2929;DHT22;1474;51.460;7.150;2022-09-16T15:11:19;15.40;99.90
2929;DHT22;1474;51.460;7.150;2022-09-16T15:13:51;15.30;99.90
2929;DHT22;1474;51.460;7.150;2022-09-16T15:16:20;15.20;99.90
2929;DHT22;1474;51.460;7.150;2022-09-16T15:19:02;15.30;99.90
2929;DHT22;1474;51.460;7.150;2022-09-16T15:21:33;15.20;99.90
2929;DHT22;1474;51.460;7.150;2022-09-16T15:24:02;15.20;99.90
2929;DHT22;1474;51.460;7.150;2022-09-16T15:26:40;15.10;99.90
2929;DHT22;1474;51.460;7.150;2022-09-16T15:31:50;14.80;99.90
2929;DHT22;1474;51.460;7.150;2022-09-16T15:36:55;14.80;99.90
2929;DHT22;1474;51.460;7.150;2022-09-16T15:39:33;14.70;99.90
2929;DHT22;1474;51.460;7.150;2022-09-16T15:44:51;14.70;99.90
2929;DHT22;1474;51.460;7.150;2022-09-16T15:47:34;14.80;99.90
2929;DHT22;1474;51.460;7.150;2022-09-16T15:50:17;14.80;99.90
2929;DHT22;1474;51.460;7.150;2022-09-16T15:55:35;14.70;99.90
2929;DHT22;1474;51.460;7.150;2022-09-16T15:58:15;14.70;99.90
2929;DHT22;1474;51.460;7.150;2022-09-16T16:00:58;14.80;99.90
2929;DHT22;1474;51.460;7.150;2022-09-16T16:03:26;14.70;99.90
2929;DHT22;1474;51.460;7.150;2022-09-16T16:05:53;14.50;99.90
2929;DHT22;1474;51.460;7.150;2022-09-16T16:08:48;14.40;99.90
2929;DHT22;1474;51.460;7.150;2022-09-16T16:11:19;14.10;99.90
2929;DHT22;1474;51.460;7.150;2022-09-16T16:13:45;14.00;99.90
2929;DHT22;1474;51.460;7.150;2022-09-16T16:16:16;13.80;99.90
2929;DHT22;1474;51.460;7.150;2022-09-16T16:18:45;13.80;99.90
2929;DHT22;1474;51.460;7.150;2022-09-16T16:21:14;13.70;99.90
2929;DHT22;1474;51.460;7.150;2022-09-16T16:23:40;13.80;99.90
2929;DHT22;1474;51.460;7.150;2022-09-16T16:26:09;13.70;99.90
2929;DHT22;1474;51.460;7.150;2022-09-16T16:28:35;13.80;99.90
2929;DHT22;1474;51.460;7.150;2022-09-16T16:33:32;14.00;99.90
2929;DHT22;1474;51.460;7.150;2022-09-16T16:35:58;14.00;99.90
2929;DHT22;1474;51.460;7.150;2022-09-16T16:38:24;13.90;99.90
2929;DHT22;1474;51.460;7.150;2022-09-16T16:40:52;13.80;99.90
2929;DHT22;1474;51.460;7.150;2022-09-16T16:43:18;13.80;99.90
2929;DHT22;1474;51.460;7.150;2022-09-16T16:45:43;13.90;99.90
2929;DHT22;1474;51.460;7.150;2022-09-16T16:48:09;13.90;99.90
2929;DHT22;1474;51.460;7.150;2022-09-16T16:50:36;13.80;99.90
2929;DHT22;1474;51.460;7.150;2022-09-16T16:53:01;13.70;99.90
2929;DHT22;1474;51.460;7.150;2022-09-16T16:55:27;13.60;99.90
2929;DHT22;1474;51.460;7.150;2022-09-16T16:57:53;13.40;99.90
2929;DHT22;1474;51.460;7.150;2022-09-16T17:00:19;13.40;99.90
2929;DHT22;1474;51.460;7.150;2022-09-16T17:02:44;13.40;99.90
2929;DHT22;1474;51.460;7.150;2022-09-16T17:05:10;13.20;99.90
2929;DHT22;1474;51.460;7.150;2022-09-16T17:07:36;13.20;99.90
2929;DHT22;1474;51.460;7.150;2022-09-16T17:10:02;13.20;99.90
2929;DHT22;1474;51.460;7.150;2022-09-16T17:12:30;13.30;99.90
2929;DHT22;1474;51.460;7.150;2022-09-16T17:14:56;13.10;99.90
2929;DHT22;1474;51.460;7.150;2022-09-16T17:17:22;12.90;99.90
2929;DHT22;1474;51.460;7.150;2022-09-16T17:19:48;12.80;99.90
2929;DHT22;1474;51.460;7.150;2022-09-16T17:22:13;12.80;99.90
2929;DHT22;1474;51.460;7.150;2022-09-16T17:24:40;12.70;99.90
2929;DHT22;1474;51.460;7.150;2022-09-16T17:27:05;12.70;99.90
2929;DHT22;1474;51.460;7.150;2022-09-16T17:29:31;12.60;99.90
2929;DHT22;1474;51.460;7.150;2022-09-16T17:31:57;12.60;99.90
2929;DHT22;1474;51.460;7.150;2022-09-16T17:34:25;12.50;99.90
2929;DHT22;1474;51.460;7.150;2022-09-16T17:36:50;12.50;99.90
2929;DHT22;1474;51.460;7.150;2022-09-16T17:39:18;12.60;99.90
2929;DHT22;1474;51.460;7.150;2022-09-16T17:41:46;12.60;99.90
2929;DHT22;1474;51.460;7.150;2022-09-16T17:44:14;12.50;99.90
2929;DHT22;1474;51.460;7.150;2022-09-16T17:46:41;12.60;99.90
2929;DHT22;1474;51.460;7.150;2022-09-16T17:49:12;12.60;99.90
2929;DHT22;1474;51.460;7.150;2022-09-16T17:51:38;12.70;99.90
2929;DHT22;1474;51.460;7.150;2022-09-16T17:54:04;12.70;99.90
2929;DHT22;1474;51.460;7.150;2022-09-16T17:56:31;12.70;99.90
2929;DHT22;1474;51.460;7.150;2022-09-16T17:58:56;12.70;99.90
2929;DHT22;1474;51.460;7.150;2022-09-16T18:01:24;12.70;99.90
2929;DHT22;1474;51.460;7.150;2022-09-16T18:03:51;12.60;99.90
2929;DHT22;1474;51.460;7.150;2022-09-16T18:06:23;12.50;99.90
2929;DHT22;1474;51.460;7.150;2022-09-16T18:08:49;12.50;99.90
2929;DHT22;1474;51.460;7.150;2022-09-16T18:11:17;12.40;99.90
2929;DHT22;1474;51.460;7.150;2022-09-16T18:13:43;12.50;99.90
2929;DHT22;1474;51.460;7.150;2022-09-16T18:16:19;12.60;99.90
2929;DHT22;1474;51.460;7.150;2022-09-16T18:18:45;12.60;99.90
2929;DHT22;1474;51.460;7.150;2022-09-16T18:21:16;12.70;99.90
2929;DHT22;1474;51.460;7.150;2022-09-16T18:23:44;12.70;99.90
2929;DHT22;1474;51.460;7.150;2022-09-16T18:26:12;12.60;99.90
2929;DHT22;1474;51.460;7.150;2022-09-16T18:28:39;12.70;99.90
2929;DHT22;1474;51.460;7.150;2022-09-16T18:31:11;12.60;99.90
2929;DHT22;1474;51.460;7.150;2022-09-16T18:33:38;12.70;99.90
2929;DHT22;1474;51.460;7.150;2022-09-16T18:36:07;12.60;99.90
2929;DHT22;1474;51.460;7.150;2022-09-16T18:38:33;12.60;99.90
2929;DHT22;1474;51.460;7.150;2022-09-16T18:41:09;12.60;99.90
2929;DHT22;1474;51.460;7.150;2022-09-16T18:43:40;12.60;99.90
2929;DHT22;1474;51.460;7.150;2022-09-16T18:48:37;12.60;99.90
2929;DHT22;1474;51.460;7.150;2022-09-16T18:51:03;12.50;99.90
2929;DHT22;1474;51.460;7.150;2022-09-16T18:53:30;12.60;99.90
2929;DHT22;1474;51.460;7.150;2022-09-16T18:55:56;12.60;99.90
2929;DHT22;1474;51.460;7.150;2022-09-16T18:58:22;12.60;99.90
2929;DHT22;1474;51.460;7.150;2022-09-16T19:00:48;12.50;99.90
2929;DHT22;1474;51.460;7.150;2022-09-16T19:03:15;12.50;99.90
2929;DHT22;1474;51.460;7.150;2022-09-16T19:05:53;12.50;99.90
2929;DHT22;1474;51.460;7.150;2022-09-16T19:08:19;12.50;99.90
2929;DHT22;1474;51.460;7.150;2022-09-16T19:10:47;12.40;99.90
2929;DHT22;1474;51.460;7.150;2022-09-16T19:13:13;12.50;99.90
2929;DHT22;1474;51.460;7.150;2022-09-16T19:15:38;12.40;99.90
2929;DHT22;1474;51.460;7.150;2022-09-16T19:18:04;12.40;99.90
2929;DHT22;1474;51.460;7.150;2022-09-16T19:20:30;12.30;99.90
2929;DHT22;1474;51.460;7.150;2022-09-16T19:22:56;12.30;99.90
2929;DHT22;1474;51.460;7.150;2022-09-16T19:25:21;12.30;99.90
2929;DHT22;1474;51.460;7.150;2022-09-16T19:27:47;12.20;99.90
2929;DHT22;1474;51.460;7.150;2022-09-16T19:30:13;12.20;99.90
2929;DHT22;1474;51.460;7.150;2022-09-16T19:32:38;12.10;99.90
2929;DHT22;1474;51.460;7.150;2022-09-16T19:35:04;12.10;99.90
2929;DHT22;1474;51.460;7.150;2022-09-16T19:37:30;12.10;99.90
2929;DHT22;1474;51.460;7.150;2022-09-16T19:39:56;12.00;99.90
2929;DHT22;1474;51.460;7.150;2022-09-16T19:42:21;12.00;99.90
2929;DHT22;1474;51.460;7.150;2022-09-16T19:44:47;12.00;99.90
2929;DHT22;1474;51.460;7.150;2022-09-16T19:47:13;12.00;99.90